sensor_id;sensor_type;location;lat;lon;timestamp;P1;durP1;ratioP1;P2;durP2;ratioP2
80647;SDS011;70012;0.000;0.000;2023-07-22T00:01:21;13.82;;;4.85;;
80647;SDS011;70012;0.000;0.000;2023-07-22T00:03:48;8.77;;;5.20;;
80647;SDS011;70012;0.000;0.000;2023-07-22T00:06:15;7.47;;;4.65;;
80647;SDS011;70012;0.000;0.000;2023-07-22T00:08:42;7.10;;;5.00;;
80647;SDS011;70012;0.000;0.000;2023-07-22T00:11:09;11.48;;;5.88;;
80647;SDS011;70012;0.000;0.000;2023-07-22T00:16:02;8.20;;;4.97;;
80647;SDS011;70012;0.000;0.000;2023-07-22T00:18:34;7.63;;;4.72;;
80647;SDS011;70012;0.000;0.000;2023-07-22T00:21:01;7.95;;;4.60;;
80647;SDS011;70012;0.000;0.000;2023-07-22T00:25:54;8.85;;;4.60;;
80647;SDS011;70012;0.000;0.000;2023-07-22T00:33:18;8.40;;;4.63;;
80647;SDS011;70012;0.000;0.000;2023-07-22T00:35:48;8.10;;;5.43;;
80647;SDS011;70012;0.000;0.000;2023-07-22T00:38:18;7.82;;;5.07;;
80647;SDS011;70012;0.000;0.000;2023-07-22T00:40:46;8.10;;;4.78;;
80647;SDS011;70012;0.000;0.000;2023-07-22T00:43:12;9.32;;;5.10;;
80647;SDS011;70012;0.000;0.000;2023-07-22T00:45:39;8.77;;;4.93;;
80647;SDS011;70012;0.000;0.000;2023-07-22T00:48:06;8.05;;;4.80;;
80647;SDS011;70012;0.000;0.000;2023-07-22T00:50:34;8.82;;;5.60;;
80647;SDS011;70012;0.000;0.000;2023-07-22T00:53:01;10.40;;;4.97;;
80647;SDS011;70012;0.000;0.000;2023-07-22T00:55:28;6.40;;;4.40;;
80647;SDS011;70012;0.000;0.000;2023-07-22T00:57:55;7.35;;;4.68;;
80647;SDS011;70012;0.000;0.000;2023-07-22T01:00:22;8.15;;;4.72;;
80647;SDS011;70012;0.000;0.000;2023-07-22T01:05:16;8.27;;;5.20;;
80647;SDS011;70012;0.000;0.000;2023-07-22T01:07:43;6.60;;;4.60;;
80647;SDS011;70012;0.000;0.000;2023-07-22T01:10:12;12.02;;;4.80;;
80647;SDS011;70012;0.000;0.000;2023-07-22T01:12:39;8.27;;;4.90;;
80647;SDS011;70012;0.000;0.000;2023-07-22T01:15:06;9.52;;;5.75;;
80647;SDS011;70012;0.000;0.000;2023-07-22T01:17:36;9.73;;;5.68;;
80647;SDS011;70012;0.000;0.000;2023-07-22T01:20:04;6.65;;;4.88;;
80647;SDS011;70012;0.000;0.000;2023-07-22T01:22:33;8.75;;;4.80;;
80647;SDS011;70012;0.000;0.000;2023-07-22T01:24:59;7.70;;;4.82;;
80647;SDS011;70012;0.000;0.000;2023-07-22T01:27:27;7.45;;;5.13;;
80647;SDS011;70012;0.000;0.000;2023-07-22T01:32:20;8.40;;;4.65;;
80647;SDS011;70012;0.000;0.000;2023-07-22T01:34:47;6.03;;;4.40;;
80647;SDS011;70012;0.000;0.000;2023-07-22T01:39:41;8.32;;;5.50;;
80647;SDS011;70012;0.000;0.000;2023-07-22T01:42:08;11.20;;;5.60;;
80647;SDS011;70012;0.000;0.000;2023-07-22T01:44:34;6.60;;;5.28;;
80647;SDS011;70012;0.000;0.000;2023-07-22T01:49:29;6.43;;;4.47;;
80647;SDS011;70012;0.000;0.000;2023-07-22T01:51:55;8.15;;;4.65;;
80647;SDS011;70012;0.000;0.000;2023-07-22T01:54:22;8.57;;;5.03;;
80647;SDS011;70012;0.000;0.000;2023-07-22T01:59:16;10.88;;;5.57;;
80647;SDS011;70012;0.000;0.000;2023-07-22T02:06:37;6.20;;;4.28;;
80647;SDS011;70012;0.000;0.000;2023-07-22T02:09:04;6.45;;;4.30;;
80647;SDS011;70012;0.000;0.000;2023-07-22T02:11:40;7.88;;;4.72;;
80647;SDS011;70012;0.000;0.000;2023-07-22T02:14:08;10.60;;;5.43;;
80647;SDS011;70012;0.000;0.000;2023-07-22T02:16:35;8.60;;;4.35;;
80647;SDS011;70012;0.000;0.000;2023-07-22T02:19:05;8.68;;;5.05;;
80647;SDS011;70012;0.000;0.000;2023-07-22T02:21:33;9.93;;;4.13;;
80647;SDS011;70012;0.000;0.000;2023-07-22T02:23:59;11.05;;;5.05;;
80647;SDS011;70012;0.000;0.000;2023-07-22T02:26:26;7.35;;;4.60;;
80647;SDS011;70012;0.000;0.000;2023-07-22T02:28:54;8.20;;;4.75;;
80647;SDS011;70012;0.000;0.000;2023-07-22T02:31:21;6.60;;;4.38;;
80647;SDS011;70012;0.000;0.000;2023-07-22T02:33:49;7.10;;;4.10;;
80647;SDS011;70012;0.000;0.000;2023-07-22T02:36:16;7.20;;;4.38;;
80647;SDS011;70012;0.000;0.000;2023-07-22T02:38:43;6.72;;;4.38;;
80647;SDS011;70012;0.000;0.000;2023-07-22T02:41:10;5.47;;;3.97;;
80647;SDS011;70012;0.000;0.000;2023-07-22T02:43:37;6.75;;;4.50;;
80647;SDS011;70012;0.000;0.000;2023-07-22T02:46:05;5.63;;;4.15;;
80647;SDS011;70012;0.000;0.000;2023-07-22T02:48:34;7.85;;;4.07;;
80647;SDS011;70012;0.000;0.000;2023-07-22T02:51:02;7.68;;;4.35;;
80647;SDS011;70012;0.000;0.000;2023-07-22T02:53:32;7.45;;;4.47;;
80647;SDS011;70012;0.000;0.000;2023-07-22T02:55:59;7.07;;;4.60;;
80647;SDS011;70012;0.000;0.000;2023-07-22T02:58:26;6.32;;;3.80;;
80647;SDS011;70012;0.000;0.000;2023-07-22T03:00:53;6.78;;;4.68;;
80647;SDS011;70012;0.000;0.000;2023-07-22T03:08:14;6.38;;;3.88;;
80647;SDS011;70012;0.000;0.000;2023-07-22T03:10:41;8.23;;;3.97;;
80647;SDS011;70012;0.000;0.000;2023-07-22T03:13:16;7.18;;;4.25;;
80647;SDS011;70012;0.000;0.000;2023-07-22T03:15:43;9.45;;;4.90;;
80647;SDS011;70012;0.000;0.000;2023-07-22T03:18:11;9.13;;;4.82;;
80647;SDS011;70012;0.000;0.000;2023-07-22T03:20:38;7.60;;;4.57;;
80647;SDS011;70012;0.000;0.000;2023-07-22T03:23:06;7.35;;;4.25;;
80647;SDS011;70012;0.000;0.000;2023-07-22T03:25:34;8.52;;;4.40;;
80647;SDS011;70012;0.000;0.000;2023-07-22T03:28:05;6.10;;;4.15;;
80647;SDS011;70012;0.000;0.000;2023-07-22T03:30:33;9.43;;;4.30;;
80647;SDS011;70012;0.000;0.000;2023-07-22T03:33:00;7.85;;;4.93;;
80647;SDS011;70012;0.000;0.000;2023-07-22T03:35:27;9.18;;;4.70;;
80647;SDS011;70012;0.000;0.000;2023-07-22T03:37:55;8.93;;;5.50;;
80647;SDS011;70012;0.000;0.000;2023-07-22T03:40:22;9.35;;;5.18;;
80647;SDS011;70012;0.000;0.000;2023-07-22T03:42:59;7.28;;;4.35;;
80647;SDS011;70012;0.000;0.000;2023-07-22T03:45:26;8.45;;;4.50;;
80647;SDS011;70012;0.000;0.000;2023-07-22T03:47:56;7.25;;;4.80;;
80647;SDS011;70012;0.000;0.000;2023-07-22T03:50:24;8.75;;;4.85;;
80647;SDS011;70012;0.000;0.000;2023-07-22T03:52:52;7.03;;;4.43;;
80647;SDS011;70012;0.000;0.000;2023-07-22T03:55:19;10.00;;;5.15;;
80647;SDS011;70012;0.000;0.000;2023-07-22T03:57:46;7.38;;;4.45;;
80647;SDS011;70012;0.000;0.000;2023-07-22T04:00:13;6.93;;;4.80;;
80647;SDS011;70012;0.000;0.000;2023-07-22T04:02:40;7.85;;;4.70;;
80647;SDS011;70012;0.000;0.000;2023-07-22T04:05:08;7.60;;;4.68;;
80647;SDS011;70012;0.000;0.000;2023-07-22T04:07:36;6.55;;;4.55;;
80647;SDS011;70012;0.000;0.000;2023-07-22T04:10:03;7.55;;;5.05;;
80647;SDS011;70012;0.000;0.000;2023-07-22T04:12:30;8.43;;;4.45;;
80647;SDS011;70012;0.000;0.000;2023-07-22T04:14:57;6.88;;;4.78;;
80647;SDS011;70012;0.000;0.000;2023-07-22T04:17:24;7.85;;;4.88;;
80647;SDS011;70012;0.000;0.000;2023-07-22T04:22:18;8.73;;;4.90;;
80647;SDS011;70012;0.000;0.000;2023-07-22T04:24:47;8.75;;;4.80;;
80647;SDS011;70012;0.000;0.000;2023-07-22T04:27:15;9.77;;;4.57;;
80647;SDS011;70012;0.000;0.000;2023-07-22T04:29:42;7.47;;;4.65;;
80647;SDS011;70012;0.000;0.000;2023-07-22T04:32:09;8.48;;;4.65;;
80647;SDS011;70012;0.000;0.000;2023-07-22T04:34:36;7.22;;;4.25;;
80647;SDS011;70012;0.000;0.000;2023-07-22T04:37:03;7.72;;;4.78;;
80647;SDS011;70012;0.000;0.000;2023-07-22T04:39:30;6.45;;;4.88;;
80647;SDS011;70012;0.000;0.000;2023-07-22T04:41:56;6.80;;;4.60;;
80647;SDS011;70012;0.000;0.000;2023-07-22T04:46:50;9.15;;;5.28;;
80647;SDS011;70012;0.000;0.000;2023-07-22T04:49:17;6.85;;;4.53;;
80647;SDS011;70012;0.000;0.000;2023-07-22T04:51:45;7.55;;;4.45;;
80647;SDS011;70012;0.000;0.000;2023-07-22T04:54:12;9.20;;;4.30;;
80647;SDS011;70012;0.000;0.000;2023-07-22T04:56:39;7.05;;;4.78;;
80647;SDS011;70012;0.000;0.000;2023-07-22T04:59:07;8.40;;;5.35;;
80647;SDS011;70012;0.000;0.000;2023-07-22T05:01:34;8.30;;;5.35;;
80647;SDS011;70012;0.000;0.000;2023-07-22T05:04:01;8.95;;;4.35;;
80647;SDS011;70012;0.000;0.000;2023-07-22T05:06:29;6.85;;;4.53;;
80647;SDS011;70012;0.000;0.000;2023-07-22T05:08:55;9.02;;;5.32;;
80647;SDS011;70012;0.000;0.000;2023-07-22T05:11:22;7.32;;;4.50;;
80647;SDS011;70012;0.000;0.000;2023-07-22T05:13:49;8.70;;;5.13;;
80647;SDS011;70012;0.000;0.000;2023-07-22T05:16:17;7.70;;;5.10;;
80647;SDS011;70012;0.000;0.000;2023-07-22T05:18:44;6.60;;;4.38;;
80647;SDS011;70012;0.000;0.000;2023-07-22T05:23:38;9.13;;;4.95;;
80647;SDS011;70012;0.000;0.000;2023-07-22T05:26:05;10.48;;;4.97;;
80647;SDS011;70012;0.000;0.000;2023-07-22T05:28:31;8.00;;;4.45;;
80647;SDS011;70012;0.000;0.000;2023-07-22T05:30:58;7.72;;;5.18;;
80647;SDS011;70012;0.000;0.000;2023-07-22T05:33:25;7.53;;;4.30;;
80647;SDS011;70012;0.000;0.000;2023-07-22T05:35:52;6.72;;;4.60;;
80647;SDS011;70012;0.000;0.000;2023-07-22T05:38:18;11.43;;;4.82;;
80647;SDS011;70012;0.000;0.000;2023-07-22T05:40:45;9.38;;;4.85;;
80647;SDS011;70012;0.000;0.000;2023-07-22T05:43:12;6.75;;;4.57;;
80647;SDS011;70012;0.000;0.000;2023-07-22T05:45:39;8.20;;;5.15;;
80647;SDS011;70012;0.000;0.000;2023-07-22T05:48:06;5.40;;;3.97;;
80647;SDS011;70012;0.000;0.000;2023-07-22T05:50:32;8.02;;;4.55;;
80647;SDS011;70012;0.000;0.000;2023-07-22T05:52:59;5.47;;;3.70;;
80647;SDS011;70012;0.000;0.000;2023-07-22T05:55:26;8.02;;;4.40;;
80647;SDS011;70012;0.000;0.000;2023-07-22T05:57:53;7.35;;;4.38;;
80647;SDS011;70012;0.000;0.000;2023-07-22T06:00:20;7.93;;;4.63;;
80647;SDS011;70012;0.000;0.000;2023-07-22T06:02:47;6.38;;;4.00;;
80647;SDS011;70012;0.000;0.000;2023-07-22T06:05:15;7.72;;;4.57;;
80647;SDS011;70012;0.000;0.000;2023-07-22T06:07:42;7.20;;;4.18;;
80647;SDS011;70012;0.000;0.000;2023-07-22T06:10:09;8.07;;;4.38;;
80647;SDS011;70012;0.000;0.000;2023-07-22T06:12:36;7.43;;;4.78;;
80647;SDS011;70012;0.000;0.000;2023-07-22T06:15:03;5.60;;;4.10;;
80647;SDS011;70012;0.000;0.000;2023-07-22T06:17:30;5.63;;;3.85;;
80647;SDS011;70012;0.000;0.000;2023-07-22T06:19:57;7.40;;;4.43;;
80647;SDS011;70012;0.000;0.000;2023-07-22T06:22:25;6.78;;;4.20;;
80647;SDS011;70012;0.000;0.000;2023-07-22T06:24:52;5.50;;;4.00;;
80647;SDS011;70012;0.000;0.000;2023-07-22T06:27:19;6.22;;;3.88;;
80647;SDS011;70012;0.000;0.000;2023-07-22T06:29:48;7.70;;;4.50;;
80647;SDS011;70012;0.000;0.000;2023-07-22T06:32:15;5.65;;;3.65;;
80647;SDS011;70012;0.000;0.000;2023-07-22T06:34:42;6.47;;;3.83;;
80647;SDS011;70012;0.000;0.000;2023-07-22T06:37:09;4.88;;;3.50;;
80647;SDS011;70012;0.000;0.000;2023-07-22T06:39:36;7.75;;;3.97;;
80647;SDS011;70012;0.000;0.000;2023-07-22T06:42:03;5.25;;;3.45;;
80647;SDS011;70012;0.000;0.000;2023-07-22T06:44:30;6.78;;;3.95;;
80647;SDS011;70012;0.000;0.000;2023-07-22T06:46:59;6.43;;;3.83;;
80647;SDS011;70012;0.000;0.000;2023-07-22T06:49:25;6.78;;;4.03;;
80647;SDS011;70012;0.000;0.000;2023-07-22T06:51:52;6.15;;;3.80;;
80647;SDS011;70012;0.000;0.000;2023-07-22T06:54:19;7.25;;;3.65;;
80647;SDS011;70012;0.000;0.000;2023-07-22T06:56:46;6.88;;;3.60;;
80647;SDS011;70012;0.000;0.000;2023-07-22T06:59:13;5.55;;;3.38;;
80647;SDS011;70012;0.000;0.000;2023-07-22T07:01:39;7.00;;;3.85;;
80647;SDS011;70012;0.000;0.000;2023-07-22T07:04:07;5.80;;;3.60;;
80647;SDS011;70012;0.000;0.000;2023-07-22T07:06:34;4.22;;;3.03;;
80647;SDS011;70012;0.000;0.000;2023-07-22T07:09:01;6.03;;;3.53;;
80647;SDS011;70012;0.000;0.000;2023-07-22T07:11:29;4.85;;;3.67;;
80647;SDS011;70012;0.000;0.000;2023-07-22T07:13:56;4.85;;;3.25;;
80647;SDS011;70012;0.000;0.000;2023-07-22T07:16:24;6.75;;;3.35;;
80647;SDS011;70012;0.000;0.000;2023-07-22T07:18:51;5.55;;;3.85;;
80647;SDS011;70012;0.000;0.000;2023-07-22T07:21:19;5.22;;;3.60;;
80647;SDS011;70012;0.000;0.000;2023-07-22T07:23:46;5.47;;;3.83;;
80647;SDS011;70012;0.000;0.000;2023-07-22T07:26:14;6.97;;;3.70;;
80647;SDS011;70012;0.000;0.000;2023-07-22T07:28:41;5.65;;;3.90;;
80647;SDS011;70012;0.000;0.000;2023-07-22T07:31:08;6.90;;;4.07;;
80647;SDS011;70012;0.000;0.000;2023-07-22T07:33:35;6.68;;;3.70;;
80647;SDS011;70012;0.000;0.000;2023-07-22T07:36:02;7.50;;;4.20;;
80647;SDS011;70012;0.000;0.000;2023-07-22T07:38:30;5.57;;;3.60;;
80647;SDS011;70012;0.000;0.000;2023-07-22T07:40:57;6.13;;;3.92;;
80647;SDS011;70012;0.000;0.000;2023-07-22T07:43:26;5.25;;;3.95;;
80647;SDS011;70012;0.000;0.000;2023-07-22T07:48:54;7.40;;;4.57;;
80647;SDS011;70012;0.000;0.000;2023-07-22T07:51:22;7.30;;;3.85;;
80647;SDS011;70012;0.000;0.000;2023-07-22T07:53:51;8.00;;;4.20;;
80647;SDS011;70012;0.000;0.000;2023-07-22T07:56:18;5.90;;;4.20;;
80647;SDS011;70012;0.000;0.000;2023-07-22T07:58:46;5.00;;;3.88;;
80647;SDS011;70012;0.000;0.000;2023-07-22T08:01:15;6.05;;;4.13;;
80647;SDS011;70012;0.000;0.000;2023-07-22T08:03:42;7.68;;;4.15;;
80647;SDS011;70012;0.000;0.000;2023-07-22T08:06:10;7.55;;;4.03;;
80647;SDS011;70012;0.000;0.000;2023-07-22T08:08:38;6.57;;;3.85;;
80647;SDS011;70012;0.000;0.000;2023-07-22T08:11:06;6.85;;;3.60;;
80647;SDS011;70012;0.000;0.000;2023-07-22T08:13:36;6.20;;;4.30;;
80647;SDS011;70012;0.000;0.000;2023-07-22T08:16:04;8.18;;;4.47;;
80647;SDS011;70012;0.000;0.000;2023-07-22T08:18:33;6.32;;;3.70;;
80647;SDS011;70012;0.000;0.000;2023-07-22T08:21:01;5.53;;;4.03;;
80647;SDS011;70012;0.000;0.000;2023-07-22T08:23:29;7.63;;;3.47;;
80647;SDS011;70012;0.000;0.000;2023-07-22T08:25:57;5.65;;;3.80;;
80647;SDS011;70012;0.000;0.000;2023-07-22T08:28:24;6.28;;;3.60;;
80647;SDS011;70012;0.000;0.000;2023-07-22T08:30:53;4.75;;;3.38;;
80647;SDS011;70012;0.000;0.000;2023-07-22T08:33:22;5.85;;;3.30;;
80647;SDS011;70012;0.000;0.000;2023-07-22T08:36:06;5.55;;;3.20;;
80647;SDS011;70012;0.000;0.000;2023-07-22T08:38:33;6.40;;;3.28;;
80647;SDS011;70012;0.000;0.000;2023-07-22T08:41:00;5.25;;;3.40;;
80647;SDS011;70012;0.000;0.000;2023-07-22T08:43:30;4.57;;;3.42;;
80647;SDS011;70012;0.000;0.000;2023-07-22T08:45:59;5.35;;;3.53;;
80647;SDS011;70012;0.000;0.000;2023-07-22T08:48:29;7.95;;;3.58;;
80647;SDS011;70012;0.000;0.000;2023-07-22T08:51:15;4.82;;;3.50;;
80647;SDS011;70012;0.000;0.000;2023-07-22T08:53:44;5.35;;;3.83;;
80647;SDS011;70012;0.000;0.000;2023-07-22T08:56:25;4.95;;;3.55;;
80647;SDS011;70012;0.000;0.000;2023-07-22T08:58:53;6.45;;;3.70;;
80647;SDS011;70012;0.000;0.000;2023-07-22T09:01:21;4.80;;;3.50;;
80647;SDS011;70012;0.000;0.000;2023-07-22T09:03:49;4.82;;;2.90;;
80647;SDS011;70012;0.000;0.000;2023-07-22T09:06:19;4.38;;;2.70;;
80647;SDS011;70012;0.000;0.000;2023-07-22T09:08:46;6.22;;;3.28;;
80647;SDS011;70012;0.000;0.000;2023-07-22T09:11:13;5.10;;;3.40;;
80647;SDS011;70012;0.000;0.000;2023-07-22T09:13:40;4.40;;;3.28;;
80647;SDS011;70012;0.000;0.000;2023-07-22T09:16:10;5.28;;;3.78;;
80647;SDS011;70012;0.000;0.000;2023-07-22T09:18:39;3.97;;;3.33;;
80647;SDS011;70012;0.000;0.000;2023-07-22T09:21:05;4.68;;;3.33;;
80647;SDS011;70012;0.000;0.000;2023-07-22T09:23:33;12.45;;;3.30;;
80647;SDS011;70012;0.000;0.000;2023-07-22T09:26:11;9.05;;;3.53;;
80647;SDS011;70012;0.000;0.000;2023-07-22T09:28:51;5.82;;;3.63;;
80647;SDS011;70012;0.000;0.000;2023-07-22T09:31:20;5.20;;;3.53;;
80647;SDS011;70012;0.000;0.000;2023-07-22T09:33:48;4.38;;;3.28;;
80647;SDS011;70012;0.000;0.000;2023-07-22T09:36:15;4.80;;;2.97;;
80647;SDS011;70012;0.000;0.000;2023-07-22T09:38:42;5.45;;;3.10;;
80647;SDS011;70012;0.000;0.000;2023-07-22T09:41:09;4.72;;;3.08;;
80647;SDS011;70012;0.000;0.000;2023-07-22T09:43:36;3.95;;;3.05;;
80647;SDS011;70012;0.000;0.000;2023-07-22T09:46:07;3.97;;;2.83;;
80647;SDS011;70012;0.000;0.000;2023-07-22T09:48:39;5.25;;;3.30;;
80647;SDS011;70012;0.000;0.000;2023-07-22T09:51:12;5.03;;;2.78;;
80647;SDS011;70012;0.000;0.000;2023-07-22T09:53:44;3.83;;;3.08;;
80647;SDS011;70012;0.000;0.000;2023-07-22T09:56:12;4.57;;;2.70;;
80647;SDS011;70012;0.000;0.000;2023-07-22T09:58:39;4.63;;;3.38;;
80647;SDS011;70012;0.000;0.000;2023-07-22T10:01:07;6.68;;;3.53;;
80647;SDS011;70012;0.000;0.000;2023-07-22T10:03:34;6.25;;;2.92;;
80647;SDS011;70012;0.000;0.000;2023-07-22T10:06:05;9.02;;;2.97;;
80647;SDS011;70012;0.000;0.000;2023-07-22T10:08:34;4.95;;;3.17;;
80647;SDS011;70012;0.000;0.000;2023-07-22T10:11:05;3.67;;;2.88;;
80647;SDS011;70012;0.000;0.000;2023-07-22T10:13:35;4.50;;;3.13;;
80647;SDS011;70012;0.000;0.000;2023-07-22T10:16:02;4.80;;;2.75;;
80647;SDS011;70012;0.000;0.000;2023-07-22T10:18:30;4.78;;;3.00;;
80647;SDS011;70012;0.000;0.000;2023-07-22T10:20:58;3.85;;;3.10;;
80647;SDS011;70012;0.000;0.000;2023-07-22T10:23:26;4.53;;;3.17;;
80647;SDS011;70012;0.000;0.000;2023-07-22T10:25:53;4.82;;;3.20;;
80647;SDS011;70012;0.000;0.000;2023-07-22T10:28:21;3.75;;;3.10;;
80647;SDS011;70012;0.000;0.000;2023-07-22T10:30:48;5.30;;;3.33;;
80647;SDS011;70012;0.000;0.000;2023-07-22T10:33:15;4.90;;;3.20;;
80647;SDS011;70012;0.000;0.000;2023-07-22T10:35:43;3.47;;;2.70;;
80647;SDS011;70012;0.000;0.000;2023-07-22T10:38:27;3.55;;;2.58;;
80647;SDS011;70012;0.000;0.000;2023-07-22T10:40:54;3.22;;;2.50;;
80647;SDS011;70012;0.000;0.000;2023-07-22T10:43:24;4.15;;;2.83;;
80647;SDS011;70012;0.000;0.000;2023-07-22T10:45:54;3.67;;;2.63;;
80647;SDS011;70012;0.000;0.000;2023-07-22T10:48:23;3.85;;;2.67;;
80647;SDS011;70012;0.000;0.000;2023-07-22T10:50:55;3.22;;;2.30;;
80647;SDS011;70012;0.000;0.000;2023-07-22T11:09:32;2.88;;;2.20;;
80647;SDS011;70012;0.000;0.000;2023-07-22T11:14:34;2.42;;;1.92;;
80647;SDS011;70012;0.000;0.000;2023-07-22T11:17:04;3.45;;;2.00;;
80647;SDS011;70012;0.000;0.000;2023-07-22T11:19:34;2.38;;;1.92;;
80647;SDS011;70012;0.000;0.000;2023-07-22T11:22:01;6.13;;;2.13;;
80647;SDS011;70012;0.000;0.000;2023-07-22T11:24:28;3.03;;;2.00;;
80647;SDS011;70012;0.000;0.000;2023-07-22T11:26:56;4.03;;;2.15;;
80647;SDS011;70012;0.000;0.000;2023-07-22T11:29:22;2.38;;;2.00;;
80647;SDS011;70012;0.000;0.000;2023-07-22T11:31:49;3.88;;;2.22;;
80647;SDS011;70012;0.000;0.000;2023-07-22T11:34:19;3.70;;;2.30;;
80647;SDS011;70012;0.000;0.000;2023-07-22T11:36:47;3.03;;;2.33;;
80647;SDS011;70012;0.000;0.000;2023-07-22T11:39:16;3.30;;;2.10;;
80647;SDS011;70012;0.000;0.000;2023-07-22T11:41:44;3.92;;;2.22;;
80647;SDS011;70012;0.000;0.000;2023-07-22T11:44:13;3.53;;;2.00;;
80647;SDS011;70012;0.000;0.000;2023-07-22T11:49:24;4.13;;;2.20;;
80647;SDS011;70012;0.000;0.000;2023-07-22T11:52:17;4.13;;;2.10;;
80647;SDS011;70012;0.000;0.000;2023-07-22T11:54:51;3.33;;;2.30;;
80647;SDS011;70012;0.000;0.000;2023-07-22T11:59:47;4.30;;;2.03;;
80647;SDS011;70012;0.000;0.000;2023-07-22T12:02:19;3.97;;;2.10;;
80647;SDS011;70012;0.000;0.000;2023-07-22T12:05:21;3.38;;;2.50;;
80647;SDS011;70012;0.000;0.000;2023-07-22T12:07:47;3.58;;;2.50;;
80647;SDS011;70012;0.000;0.000;2023-07-22T12:10:15;2.35;;;1.92;;
80647;SDS011;70012;0.000;0.000;2023-07-22T12:12:42;2.88;;;2.28;;
80647;SDS011;70012;0.000;0.000;2023-07-22T12:15:16;4.20;;;2.92;;
80647;SDS011;70012;0.000;0.000;2023-07-22T12:20:38;4.05;;;2.13;;
80647;SDS011;70012;0.000;0.000;2023-07-22T12:23:06;3.15;;;2.10;;
80647;SDS011;70012;0.000;0.000;2023-07-22T12:25:33;4.00;;;2.25;;
80647;SDS011;70012;0.000;0.000;2023-07-22T12:27:59;3.80;;;2.55;;
80647;SDS011;70012;0.000;0.000;2023-07-22T12:30:26;3.13;;;2.35;;
80647;SDS011;70012;0.000;0.000;2023-07-22T12:32:54;4.95;;;2.58;;
80647;SDS011;70012;0.000;0.000;2023-07-22T12:35:21;3.47;;;2.35;;
80647;SDS011;70012;0.000;0.000;2023-07-22T12:37:48;3.42;;;2.42;;
80647;SDS011;70012;0.000;0.000;2023-07-22T12:40:15;3.28;;;2.42;;
80647;SDS011;70012;0.000;0.000;2023-07-22T12:42:41;3.63;;;2.38;;
80647;SDS011;70012;0.000;0.000;2023-07-22T12:45:08;3.60;;;2.70;;
80647;SDS011;70012;0.000;0.000;2023-07-22T12:47:35;3.60;;;2.53;;
80647;SDS011;70012;0.000;0.000;2023-07-22T12:50:04;5.40;;;2.67;;
80647;SDS011;70012;0.000;0.000;2023-07-22T12:52:31;3.28;;;2.35;;
80647;SDS011;70012;0.000;0.000;2023-07-22T12:54:58;5.72;;;2.20;;
80647;SDS011;70012;0.000;0.000;2023-07-22T12:57:25;3.28;;;2.28;;
80647;SDS011;70012;0.000;0.000;2023-07-22T12:59:51;3.53;;;2.45;;
80647;SDS011;70012;0.000;0.000;2023-07-22T13:02:18;3.05;;;2.20;;
80647;SDS011;70012;0.000;0.000;2023-07-22T13:04:45;3.58;;;2.50;;
80647;SDS011;70012;0.000;0.000;2023-07-22T13:07:12;2.95;;;2.15;;
80647;SDS011;70012;0.000;0.000;2023-07-22T13:09:38;4.40;;;2.55;;
80647;SDS011;70012;0.000;0.000;2023-07-22T13:12:06;5.10;;;2.90;;
80647;SDS011;70012;0.000;0.000;2023-07-22T13:14:33;4.35;;;2.90;;
80647;SDS011;70012;0.000;0.000;2023-07-22T13:17:01;4.43;;;2.67;;
80647;SDS011;70012;0.000;0.000;2023-07-22T13:19:28;2.97;;;2.60;;
80647;SDS011;70012;0.000;0.000;2023-07-22T13:21:54;3.72;;;2.67;;
80647;SDS011;70012;0.000;0.000;2023-07-22T13:24:21;4.97;;;2.53;;
80647;SDS011;70012;0.000;0.000;2023-07-22T13:26:48;5.00;;;2.70;;
80647;SDS011;70012;0.000;0.000;2023-07-22T13:29:14;3.70;;;2.15;;
80647;SDS011;70012;0.000;0.000;2023-07-22T13:31:41;3.92;;;2.90;;
80647;SDS011;70012;0.000;0.000;2023-07-22T13:34:08;3.10;;;2.47;;
80647;SDS011;70012;0.000;0.000;2023-07-22T13:36:35;3.38;;;2.30;;
80647;SDS011;70012;0.000;0.000;2023-07-22T13:39:02;3.50;;;2.88;;
80647;SDS011;70012;0.000;0.000;2023-07-22T13:41:29;3.70;;;2.60;;
80647;SDS011;70012;0.000;0.000;2023-07-22T13:43:55;3.30;;;2.53;;
80647;SDS011;70012;0.000;0.000;2023-07-22T13:46:22;4.35;;;2.97;;
80647;SDS011;70012;0.000;0.000;2023-07-22T13:48:49;3.95;;;2.70;;
80647;SDS011;70012;0.000;0.000;2023-07-22T13:51:15;3.97;;;2.60;;
80647;SDS011;70012;0.000;0.000;2023-07-22T13:53:42;5.05;;;3.20;;
80647;SDS011;70012;0.000;0.000;2023-07-22T13:56:09;3.60;;;2.75;;
80647;SDS011;70012;0.000;0.000;2023-07-22T13:58:35;3.75;;;2.63;;
80647;SDS011;70012;0.000;0.000;2023-07-22T14:01:02;4.38;;;2.80;;
80647;SDS011;70012;0.000;0.000;2023-07-22T14:03:29;3.95;;;2.97;;
80647;SDS011;70012;0.000;0.000;2023-07-22T14:05:56;4.03;;;3.03;;
80647;SDS011;70012;0.000;0.000;2023-07-22T14:08:42;5.68;;;3.28;;
80647;SDS011;70012;0.000;0.000;2023-07-22T14:11:09;5.68;;;2.80;;
80647;SDS011;70012;0.000;0.000;2023-07-22T14:13:36;4.45;;;2.92;;
80647;SDS011;70012;0.000;0.000;2023-07-22T14:16:02;4.82;;;2.92;;
80647;SDS011;70012;0.000;0.000;2023-07-22T14:18:47;4.68;;;2.78;;
80647;SDS011;70012;0.000;0.000;2023-07-22T14:21:14;4.43;;;3.20;;
80647;SDS011;70012;0.000;0.000;2023-07-22T14:23:41;3.80;;;2.97;;
80647;SDS011;70012;0.000;0.000;2023-07-22T14:26:09;4.18;;;2.90;;
80647;SDS011;70012;0.000;0.000;2023-07-22T14:28:36;4.72;;;3.33;;
80647;SDS011;70012;0.000;0.000;2023-07-22T14:31:03;3.30;;;2.80;;
80647;SDS011;70012;0.000;0.000;2023-07-22T14:33:30;3.80;;;2.70;;
80647;SDS011;70012;0.000;0.000;2023-07-22T14:35:57;3.97;;;2.88;;
80647;SDS011;70012;0.000;0.000;2023-07-22T14:38:23;5.50;;;2.83;;
80647;SDS011;70012;0.000;0.000;2023-07-22T14:40:50;4.20;;;2.90;;
80647;SDS011;70012;0.000;0.000;2023-07-22T14:43:17;4.70;;;3.40;;
80647;SDS011;70012;0.000;0.000;2023-07-22T14:45:47;6.07;;;3.47;;
80647;SDS011;70012;0.000;0.000;2023-07-22T14:48:14;3.72;;;2.88;;
80647;SDS011;70012;0.000;0.000;2023-07-22T14:50:41;3.92;;;3.10;;
80647;SDS011;70012;0.000;0.000;2023-07-22T14:53:07;6.30;;;3.35;;
80647;SDS011;70012;0.000;0.000;2023-07-22T14:55:34;6.03;;;2.97;;
80647;SDS011;70012;0.000;0.000;2023-07-22T14:58:01;7.07;;;3.05;;
80647;SDS011;70012;0.000;0.000;2023-07-22T15:00:27;3.85;;;2.90;;
80647;SDS011;70012;0.000;0.000;2023-07-22T15:02:56;4.18;;;3.08;;
80647;SDS011;70012;0.000;0.000;2023-07-22T15:05:22;4.82;;;3.10;;
80647;SDS011;70012;0.000;0.000;2023-07-22T15:07:51;6.60;;;2.88;;
80647;SDS011;70012;0.000;0.000;2023-07-22T15:10:17;4.85;;;3.28;;
80647;SDS011;70012;0.000;0.000;2023-07-22T15:12:45;6.22;;;3.38;;
80647;SDS011;70012;0.000;0.000;2023-07-22T15:15:12;4.22;;;3.35;;
80647;SDS011;70012;0.000;0.000;2023-07-22T15:17:39;4.30;;;3.03;;
80647;SDS011;70012;0.000;0.000;2023-07-22T15:20:05;5.07;;;3.08;;
80647;SDS011;70012;0.000;0.000;2023-07-22T15:22:33;5.45;;;3.60;;
80647;SDS011;70012;0.000;0.000;2023-07-22T15:25:00;5.28;;;3.67;;
80647;SDS011;70012;0.000;0.000;2023-07-22T15:27:26;4.65;;;3.05;;
80647;SDS011;70012;0.000;0.000;2023-07-22T15:29:53;5.20;;;3.53;;
80647;SDS011;70012;0.000;0.000;2023-07-22T15:32:19;5.45;;;3.90;;
80647;SDS011;70012;0.000;0.000;2023-07-22T15:34:46;9.30;;;3.35;;
80647;SDS011;70012;0.000;0.000;2023-07-22T15:37:13;5.28;;;4.32;;
80647;SDS011;70012;0.000;0.000;2023-07-22T15:39:39;6.03;;;3.90;;
80647;SDS011;70012;0.000;0.000;2023-07-22T15:42:06;7.18;;;3.72;;
80647;SDS011;70012;0.000;0.000;2023-07-22T15:44:33;7.00;;;3.90;;
80647;SDS011;70012;0.000;0.000;2023-07-22T15:47:00;6.85;;;4.55;;
80647;SDS011;70012;0.000;0.000;2023-07-22T15:49:26;5.97;;;3.67;;
80647;SDS011;70012;0.000;0.000;2023-07-22T15:51:53;8.93;;;4.68;;
80647;SDS011;70012;0.000;0.000;2023-07-22T15:54:20;9.68;;;5.13;;
80647;SDS011;70012;0.000;0.000;2023-07-22T15:56:46;7.75;;;4.82;;
80647;SDS011;70012;0.000;0.000;2023-07-22T15:59:13;8.30;;;4.95;;
80647;SDS011;70012;0.000;0.000;2023-07-22T16:01:39;5.68;;;4.18;;
80647;SDS011;70012;0.000;0.000;2023-07-22T16:04:06;5.95;;;4.32;;
80647;SDS011;70012;0.000;0.000;2023-07-22T16:06:33;6.68;;;4.38;;
80647;SDS011;70012;0.000;0.000;2023-07-22T16:09:00;5.35;;;4.00;;
80647;SDS011;70012;0.000;0.000;2023-07-22T16:11:27;6.13;;;4.05;;
80647;SDS011;70012;0.000;0.000;2023-07-22T16:13:54;7.10;;;4.50;;